sensor_id;sensor_type;location;lat;lon;timestamp;P1;durP1;ratioP1;P2;durP2;ratioP2
13388;SDS011;6764;53.250;10.410;2023-05-07T00:01:25;8.47;;;7.57;;
13388;SDS011;6764;53.250;10.410;2023-05-07T00:03:51;7.73;;;6.93;;
13388;SDS011;6764;53.250;10.410;2023-05-07T00:06:16;7.50;;;6.80;;
13388;SDS011;6764;53.250;10.410;2023-05-07T00:08:42;7.90;;;7.20;;
13388;SDS011;6764;53.250;10.410;2023-05-07T00:11:08;7.43;;;6.67;;
13388;SDS011;6764;53.250;10.410;2023-05-07T00:13:33;7.33;;;6.63;;
13388;SDS011;6764;53.250;10.410;2023-05-07T00:16:01;7.33;;;6.70;;
13388;SDS011;6764;53.250;10.410;2023-05-07T00:18:27;8.03;;;6.33;;
13388;SDS011;6764;53.250;10.410;2023-05-07T00:20:53;7.67;;;6.97;;
13388;SDS011;6764;53.250;10.410;2023-05-07T00:23:18;7.80;;;6.93;;
13388;SDS011;6764;53.250;10.410;2023-05-07T00:25:44;7.80;;;7.13;;
13388;SDS011;6764;53.250;10.410;2023-05-07T00:28:10;8.03;;;7.20;;
13388;SDS011;6764;53.250;10.410;2023-05-07T00:30:35;6.67;;;6.10;;
13388;SDS011;6764;53.250;10.410;2023-05-07T00:33:01;6.80;;;6.20;;
13388;SDS011;6764;53.250;10.410;2023-05-07T00:35:28;7.50;;;6.80;;
13388;SDS011;6764;53.250;10.410;2023-05-07T00:37:54;7.20;;;6.50;;
13388;SDS011;6764;53.250;10.410;2023-05-07T00:40:20;7.57;;;6.80;;
13388;SDS011;6764;53.250;10.410;2023-05-07T00:42:45;7.67;;;6.97;;
13388;SDS011;6764;53.250;10.410;2023-05-07T00:45:12;7.97;;;6.70;;
13388;SDS011;6764;53.250;10.410;2023-05-07T00:47:38;7.20;;;6.50;;
13388;SDS011;6764;53.250;10.410;2023-05-07T00:50:05;7.37;;;6.67;;
13388;SDS011;6764;53.250;10.410;2023-05-07T00:52:32;7.63;;;6.83;;
13388;SDS011;6764;53.250;10.410;2023-05-07T00:54:57;7.60;;;6.90;;
13388;SDS011;6764;53.250;10.410;2023-05-07T00:57:29;7.50;;;6.80;;
13388;SDS011;6764;53.250;10.410;2023-05-07T00:59:57;7.47;;;6.87;;
13388;SDS011;6764;53.250;10.410;2023-05-07T01:02:23;7.43;;;6.73;;
13388;SDS011;6764;53.250;10.410;2023-05-07T01:04:48;6.60;;;6.00;;
13388;SDS011;6764;53.250;10.410;2023-05-07T01:07:14;6.90;;;6.30;;
13388;SDS011;6764;53.250;10.410;2023-05-07T01:09:40;7.57;;;6.87;;
13388;SDS011;6764;53.250;10.410;2023-05-07T01:12:06;7.60;;;6.90;;
13388;SDS011;6764;53.250;10.410;2023-05-07T01:14:32;8.10;;;7.40;;
13388;SDS011;6764;53.250;10.410;2023-05-07T01:16:58;8.43;;;7.30;;
13388;SDS011;6764;53.250;10.410;2023-05-07T01:19:24;7.27;;;6.67;;
13388;SDS011;6764;53.250;10.410;2023-05-07T01:21:49;8.40;;;7.60;;
13388;SDS011;6764;53.250;10.410;2023-05-07T01:24:16;7.67;;;6.97;;
13388;SDS011;6764;53.250;10.410;2023-05-07T01:26:43;8.40;;;7.60;;
13388;SDS011;6764;53.250;10.410;2023-05-07T01:29:09;8.43;;;7.70;;
13388;SDS011;6764;53.250;10.410;2023-05-07T01:31:35;8.13;;;6.90;;
13388;SDS011;6764;53.250;10.410;2023-05-07T01:34:02;8.33;;;7.53;;
13388;SDS011;6764;53.250;10.410;2023-05-07T01:36:30;8.43;;;7.63;;
13388;SDS011;6764;53.250;10.410;2023-05-07T01:38:57;8.47;;;7.30;;
13388;SDS011;6764;53.250;10.410;2023-05-07T01:41:24;8.00;;;7.30;;
13388;SDS011;6764;53.250;10.410;2023-05-07T01:43:50;8.33;;;7.53;;
13388;SDS011;6764;53.250;10.410;2023-05-07T01:46:17;7.80;;;7.10;;
13388;SDS011;6764;53.250;10.410;2023-05-07T01:48:43;8.07;;;7.27;;
13388;SDS011;6764;53.250;10.410;2023-05-07T01:51:11;7.53;;;6.87;;
13388;SDS011;6764;53.250;10.410;2023-05-07T01:53:37;7.57;;;6.87;;
13388;SDS011;6764;53.250;10.410;2023-05-07T01:56:03;8.10;;;7.37;;
13388;SDS011;6764;53.250;10.410;2023-05-07T01:58:30;8.70;;;7.90;;
13388;SDS011;6764;53.250;10.410;2023-05-07T02:00:55;10.07;;;9.13;;
13388;SDS011;6764;53.250;10.410;2023-05-07T02:03:21;8.90;;;8.10;;
13388;SDS011;6764;53.250;10.410;2023-05-07T02:05:46;8.97;;;8.17;;
13388;SDS011;6764;53.250;10.410;2023-05-07T02:08:12;8.27;;;7.57;;
13388;SDS011;6764;53.250;10.410;2023-05-07T02:10:37;9.93;;;8.90;;
13388;SDS011;6764;53.250;10.410;2023-05-07T02:13:03;9.60;;;8.70;;
13388;SDS011;6764;53.250;10.410;2023-05-07T02:15:29;9.37;;;8.43;;
13388;SDS011;6764;53.250;10.410;2023-05-07T02:20:31;9.20;;;8.30;;
13388;SDS011;6764;53.250;10.410;2023-05-07T02:22:56;9.83;;;8.77;;
13388;SDS011;6764;53.250;10.410;2023-05-07T02:25:22;9.40;;;8.53;;
13388;SDS011;6764;53.250;10.410;2023-05-07T02:27:47;9.27;;;8.37;;
13388;SDS011;6764;53.250;10.410;2023-05-07T02:30:13;8.57;;;7.47;;
13388;SDS011;6764;53.250;10.410;2023-05-07T02:32:39;9.73;;;8.83;;
13388;SDS011;6764;53.250;10.410;2023-05-07T02:35:05;9.77;;;8.87;;
13388;SDS011;6764;53.250;10.410;2023-05-07T02:37:31;9.83;;;8.93;;
13388;SDS011;6764;53.250;10.410;2023-05-07T02:39:56;10.27;;;9.17;;
13388;SDS011;6764;53.250;10.410;2023-05-07T02:42:22;11.20;;;10.10;;
13388;SDS011;6764;53.250;10.410;2023-05-07T02:44:48;9.97;;;8.97;;
13388;SDS011;6764;53.250;10.410;2023-05-07T02:47:14;10.17;;;9.17;;
13388;SDS011;6764;53.250;10.410;2023-05-07T02:49:40;9.90;;;8.90;;
13388;SDS011;6764;53.250;10.410;2023-05-07T02:52:06;9.90;;;9.00;;
13388;SDS011;6764;53.250;10.410;2023-05-07T02:54:32;10.00;;;9.10;;
13388;SDS011;6764;53.250;10.410;2023-05-07T02:56:58;10.47;;;9.40;;
13388;SDS011;6764;53.250;10.410;2023-05-07T02:59:25;10.73;;;8.80;;
13388;SDS011;6764;53.250;10.410;2023-05-07T03:01:51;10.07;;;9.07;;
13388;SDS011;6764;53.250;10.410;2023-05-07T03:04:16;10.33;;;9.27;;
13388;SDS011;6764;53.250;10.410;2023-05-07T03:06:42;10.30;;;9.30;;
13388;SDS011;6764;53.250;10.410;2023-05-07T03:09:08;9.00;;;8.20;;
13388;SDS011;6764;53.250;10.410;2023-05-07T03:11:33;9.67;;;8.77;;
13388;SDS011;6764;53.250;10.410;2023-05-07T03:14:00;8.93;;;8.10;;
13388;SDS011;6764;53.250;10.410;2023-05-07T03:16:26;9.57;;;8.57;;
13388;SDS011;6764;53.250;10.410;2023-05-07T03:18:52;8.80;;;8.00;;
13388;SDS011;6764;53.250;10.410;2023-05-07T03:21:17;9.73;;;8.70;;
13388;SDS011;6764;53.250;10.410;2023-05-07T03:23:43;9.73;;;8.20;;
13388;SDS011;6764;53.250;10.410;2023-05-07T03:26:09;9.77;;;8.87;;
13388;SDS011;6764;53.250;10.410;2023-05-07T03:28:34;10.73;;;9.17;;
13388;SDS011;6764;53.250;10.410;2023-05-07T03:31:01;10.17;;;9.17;;
13388;SDS011;6764;53.250;10.410;2023-05-07T03:33:27;10.17;;;9.17;;
13388;SDS011;6764;53.250;10.410;2023-05-07T03:35:53;10.13;;;9.07;;
13388;SDS011;6764;53.250;10.410;2023-05-07T03:38:18;10.20;;;9.20;;
13388;SDS011;6764;53.250;10.410;2023-05-07T03:40:44;9.50;;;8.47;;
13388;SDS011;6764;53.250;10.410;2023-05-07T03:43:09;9.63;;;8.30;;
13388;SDS011;6764;53.250;10.410;2023-05-07T03:45:35;10.37;;;9.27;;
13388;SDS011;6764;53.250;10.410;2023-05-07T03:48:01;10.40;;;9.40;;
13388;SDS011;6764;53.250;10.410;2023-05-07T03:50:26;11.80;;;9.07;;
13388;SDS011;6764;53.250;10.410;2023-05-07T03:52:52;9.70;;;8.80;;
13388;SDS011;6764;53.250;10.410;2023-05-07T03:55:18;9.87;;;8.87;;
13388;SDS011;6764;53.250;10.410;2023-05-07T03:57:43;9.17;;;8.27;;
13388;SDS011;6764;53.250;10.410;2023-05-07T04:00:09;10.67;;;9.03;;
13388;SDS011;6764;53.250;10.410;2023-05-07T04:02:35;9.83;;;8.83;;
13388;SDS011;6764;53.250;10.410;2023-05-07T04:05:01;9.63;;;8.67;;
13388;SDS011;6764;53.250;10.410;2023-05-07T04:07:26;8.53;;;7.63;;
13388;SDS011;6764;53.250;10.410;2023-05-07T04:09:52;10.07;;;9.07;;
13388;SDS011;6764;53.250;10.410;2023-05-07T04:12:17;9.67;;;8.67;;
13388;SDS011;6764;53.250;10.410;2023-05-07T04:14:43;10.77;;;8.77;;
13388;SDS011;6764;53.250;10.410;2023-05-07T04:17:09;10.07;;;9.17;;
13388;SDS011;6764;53.250;10.410;2023-05-07T04:19:35;10.17;;;9.27;;
13388;SDS011;6764;53.250;10.410;2023-05-07T04:22:01;9.60;;;8.60;;
13388;SDS011;6764;53.250;10.410;2023-05-07T04:24:26;9.17;;;8.30;;
13388;SDS011;6764;53.250;10.410;2023-05-07T04:26:52;11.60;;;9.67;;
13388;SDS011;6764;53.250;10.410;2023-05-07T04:29:18;9.63;;;8.63;;
13388;SDS011;6764;53.250;10.410;2023-05-07T04:31:43;10.47;;;9.17;;
13388;SDS011;6764;53.250;10.410;2023-05-07T04:34:12;10.40;;;9.30;;
13388;SDS011;6764;53.250;10.410;2023-05-07T04:36:39;10.00;;;9.00;;
13388;SDS011;6764;53.250;10.410;2023-05-07T04:39:05;11.30;;;9.37;;
13388;SDS011;6764;53.250;10.410;2023-05-07T04:41:31;10.37;;;9.03;;
13388;SDS011;6764;53.250;10.410;2023-05-07T04:43:57;10.53;;;8.93;;
13388;SDS011;6764;53.250;10.410;2023-05-07T04:46:24;11.73;;;8.93;;
13388;SDS011;6764;53.250;10.410;2023-05-07T04:48:49;8.97;;;8.07;;
13388;SDS011;6764;53.250;10.410;2023-05-07T04:51:15;11.00;;;9.90;;
13388;SDS011;6764;53.250;10.410;2023-05-07T04:53:41;10.03;;;9.03;;
13388;SDS011;6764;53.250;10.410;2023-05-07T04:56:08;10.33;;;9.10;;
13388;SDS011;6764;53.250;10.410;2023-05-07T04:58:33;9.30;;;8.40;;
13388;SDS011;6764;53.250;10.410;2023-05-07T05:00:59;9.77;;;8.77;;
13388;SDS011;6764;53.250;10.410;2023-05-07T05:03:25;9.97;;;8.97;;
13388;SDS011;6764;53.250;10.410;2023-05-07T05:05:51;11.53;;;8.70;;
13388;SDS011;6764;53.250;10.410;2023-05-07T05:08:17;8.67;;;7.80;;
13388;SDS011;6764;53.250;10.410;2023-05-07T05:10:43;9.10;;;8.20;;
13388;SDS011;6764;53.250;10.410;2023-05-07T05:13:09;9.40;;;8.40;;
13388;SDS011;6764;53.250;10.410;2023-05-07T05:15:37;8.60;;;7.80;;
13388;SDS011;6764;53.250;10.410;2023-05-07T05:18:03;9.07;;;8.20;;
13388;SDS011;6764;53.250;10.410;2023-05-07T05:20:29;11.37;;;8.20;;
13388;SDS011;6764;53.250;10.410;2023-05-07T05:22:55;8.77;;;7.87;;
13388;SDS011;6764;53.250;10.410;2023-05-07T05:25:20;9.10;;;8.20;;
13388;SDS011;6764;53.250;10.410;2023-05-07T05:27:46;9.43;;;8.40;;
13388;SDS011;6764;53.250;10.410;2023-05-07T05:30:12;9.23;;;7.90;;
13388;SDS011;6764;53.250;10.410;2023-05-07T05:32:38;8.83;;;7.40;;
13388;SDS011;6764;53.250;10.410;2023-05-07T05:35:03;8.10;;;7.30;;
13388;SDS011;6764;53.250;10.410;2023-05-07T05:37:29;9.17;;;8.27;;
13388;SDS011;6764;53.250;10.410;2023-05-07T05:39:56;9.20;;;7.93;;
13388;SDS011;6764;53.250;10.410;2023-05-07T05:42:21;8.63;;;7.80;;
13388;SDS011;6764;53.250;10.410;2023-05-07T05:44:47;8.83;;;7.93;;
13388;SDS011;6764;53.250;10.410;2023-05-07T05:47:15;13.57;;;7.87;;
13388;SDS011;6764;53.250;10.410;2023-05-07T05:49:41;9.03;;;8.13;;
13388;SDS011;6764;53.250;10.410;2023-05-07T05:52:08;8.23;;;7.43;;
13388;SDS011;6764;53.250;10.410;2023-05-07T05:54:34;9.73;;;7.37;;
13388;SDS011;6764;53.250;10.410;2023-05-07T05:56:59;9.40;;;7.93;;
13388;SDS011;6764;53.250;10.410;2023-05-07T05:59:25;10.27;;;7.93;;
13388;SDS011;6764;53.250;10.410;2023-05-07T06:01:50;9.50;;;8.07;;
13388;SDS011;6764;53.250;10.410;2023-05-07T06:04:16;8.97;;;8.07;;
13388;SDS011;6764;53.250;10.410;2023-05-07T06:06:44;8.00;;;7.20;;
13388;SDS011;6764;53.250;10.410;2023-05-07T06:09:09;9.67;;;8.47;;
13388;SDS011;6764;53.250;10.410;2023-05-07T06:11:35;8.90;;;8.00;;
13388;SDS011;6764;53.250;10.410;2023-05-07T06:14:01;8.17;;;7.40;;
13388;SDS011;6764;53.250;10.410;2023-05-07T06:16:26;10.47;;;8.23;;
13388;SDS011;6764;53.250;10.410;2023-05-07T06:18:52;8.77;;;7.87;;
13388;SDS011;6764;53.250;10.410;2023-05-07T06:21:17;9.10;;;8.20;;
13388;SDS011;6764;53.250;10.410;2023-05-07T06:23:43;8.17;;;7.37;;
13388;SDS011;6764;53.250;10.410;2023-05-07T06:26:09;7.87;;;7.07;;
13388;SDS011;6764;53.250;10.410;2023-05-07T06:28:35;8.73;;;7.37;;
13388;SDS011;6764;53.250;10.410;2023-05-07T06:31:13;8.57;;;7.20;;
13388;SDS011;6764;53.250;10.410;2023-05-07T06:33:45;7.93;;;6.97;;
13388;SDS011;6764;53.250;10.410;2023-05-07T06:36:11;7.80;;;6.80;;
13388;SDS011;6764;53.250;10.410;2023-05-07T06:38:36;9.70;;;7.50;;
13388;SDS011;6764;53.250;10.410;2023-05-07T06:41:02;7.23;;;6.57;;
13388;SDS011;6764;53.250;10.410;2023-05-07T06:43:31;8.87;;;7.30;;
13388;SDS011;6764;53.250;10.410;2023-05-07T06:45:57;8.07;;;6.27;;
13388;SDS011;6764;53.250;10.410;2023-05-07T06:48:22;10.13;;;6.57;;
13388;SDS011;6764;53.250;10.410;2023-05-07T06:50:48;8.30;;;6.27;;
13388;SDS011;6764;53.250;10.410;2023-05-07T06:53:14;8.47;;;6.50;;
13388;SDS011;6764;53.250;10.410;2023-05-07T06:55:39;8.10;;;6.83;;
13388;SDS011;6764;53.250;10.410;2023-05-07T06:58:06;7.20;;;6.50;;
13388;SDS011;6764;53.250;10.410;2023-05-07T07:00:32;8.17;;;6.67;;
13388;SDS011;6764;53.250;10.410;2023-05-07T07:02:57;7.30;;;6.60;;
13388;SDS011;6764;53.250;10.410;2023-05-07T07:05:24;8.73;;;7.37;;
13388;SDS011;6764;53.250;10.410;2023-05-07T07:07:50;7.10;;;6.00;;
13388;SDS011;6764;53.250;10.410;2023-05-07T07:10:20;6.73;;;6.13;;
13388;SDS011;6764;53.250;10.410;2023-05-07T07:12:48;7.13;;;6.43;;
13388;SDS011;6764;53.250;10.410;2023-05-07T07:15:15;8.30;;;6.27;;
13388;SDS011;6764;53.250;10.410;2023-05-07T07:17:41;6.10;;;5.60;;
13388;SDS011;6764;53.250;10.410;2023-05-07T07:20:07;6.87;;;6.27;;
13388;SDS011;6764;53.250;10.410;2023-05-07T07:22:33;6.13;;;5.60;;
13388;SDS011;6764;53.250;10.410;2023-05-07T07:24:58;6.47;;;5.83;;
13388;SDS011;6764;53.250;10.410;2023-05-07T07:27:24;7.70;;;7.00;;
13388;SDS011;6764;53.250;10.410;2023-05-07T07:29:50;6.93;;;5.77;;
13388;SDS011;6764;53.250;10.410;2023-05-07T07:32:15;7.93;;;5.57;;
13388;SDS011;6764;53.250;10.410;2023-05-07T07:34:41;6.57;;;5.97;;
13388;SDS011;6764;53.250;10.410;2023-05-07T07:37:06;6.90;;;6.20;;
13388;SDS011;6764;53.250;10.410;2023-05-07T07:39:32;6.77;;;5.90;;
13388;SDS011;6764;53.250;10.410;2023-05-07T07:41:58;6.17;;;5.57;;
13388;SDS011;6764;53.250;10.410;2023-05-07T07:44:24;5.70;;;5.07;;
13388;SDS011;6764;53.250;10.410;2023-05-07T07:46:50;5.77;;;5.27;;
13388;SDS011;6764;53.250;10.410;2023-05-07T07:49:16;6.13;;;5.53;;
13388;SDS011;6764;53.250;10.410;2023-05-07T07:51:41;6.90;;;5.57;;
13388;SDS011;6764;53.250;10.410;2023-05-07T07:54:07;5.70;;;5.13;;
13388;SDS011;6764;53.250;10.410;2023-05-07T07:56:33;7.03;;;6.00;;
13388;SDS011;6764;53.250;10.410;2023-05-07T07:58:59;6.33;;;5.37;;
13388;SDS011;6764;53.250;10.410;2023-05-07T08:01:25;6.33;;;5.73;;
13388;SDS011;6764;53.250;10.410;2023-05-07T08:03:51;7.13;;;5.97;;
13388;SDS011;6764;53.250;10.410;2023-05-07T08:06:17;6.97;;;5.67;;
13388;SDS011;6764;53.250;10.410;2023-05-07T08:08:43;6.70;;;5.97;;
13388;SDS011;6764;53.250;10.410;2023-05-07T08:11:09;6.50;;;5.90;;
13388;SDS011;6764;53.250;10.410;2023-05-07T08:13:35;6.70;;;6.00;;
13388;SDS011;6764;53.250;10.410;2023-05-07T08:16:03;12.53;;;6.50;;
13388;SDS011;6764;53.250;10.410;2023-05-07T08:18:29;10.07;;;6.37;;
13388;SDS011;6764;53.250;10.410;2023-05-07T08:20:54;8.57;;;7.07;;
13388;SDS011;6764;53.250;10.410;2023-05-07T08:23:20;9.80;;;6.60;;
13388;SDS011;6764;53.250;10.410;2023-05-07T08:25:46;7.33;;;6.13;;
13388;SDS011;6764;53.250;10.410;2023-05-07T08:28:12;8.43;;;6.43;;
13388;SDS011;6764;53.250;10.410;2023-05-07T08:30:37;7.73;;;6.63;;
13388;SDS011;6764;53.250;10.410;2023-05-07T08:33:03;7.37;;;6.63;;
13388;SDS011;6764;53.250;10.410;2023-05-07T08:35:29;6.80;;;6.17;;
13388;SDS011;6764;53.250;10.410;2023-05-07T08:37:54;6.90;;;6.17;;
13388;SDS011;6764;53.250;10.410;2023-05-07T08:40:24;7.87;;;6.00;;
13388;SDS011;6764;53.250;10.410;2023-05-07T08:42:51;6.77;;;6.07;;
13388;SDS011;6764;53.250;10.410;2023-05-07T08:45:18;6.70;;;6.00;;
13388;SDS011;6764;53.250;10.410;2023-05-07T08:47:50;6.90;;;6.20;;
13388;SDS011;6764;53.250;10.410;2023-05-07T08:50:20;6.97;;;6.30;;
13388;SDS011;6764;53.250;10.410;2023-05-07T08:52:46;7.37;;;6.67;;
13388;SDS011;6764;53.250;10.410;2023-05-07T08:55:12;7.83;;;7.13;;
13388;SDS011;6764;53.250;10.410;2023-05-07T08:57:38;8.13;;;7.00;;
13388;SDS011;6764;53.250;10.410;2023-05-07T09:00:04;7.40;;;6.70;;
13388;SDS011;6764;53.250;10.410;2023-05-07T09:02:32;7.17;;;6.47;;
13388;SDS011;6764;53.250;10.410;2023-05-07T09:04:59;8.27;;;6.57;;
13388;SDS011;6764;53.250;10.410;2023-05-07T09:07:25;7.87;;;6.37;;
13388;SDS011;6764;53.250;10.410;2023-05-07T09:09:51;6.93;;;6.27;;
13388;SDS011;6764;53.250;10.410;2023-05-07T09:12:19;7.50;;;6.80;;
13388;SDS011;6764;53.250;10.410;2023-05-07T09:14:45;7.87;;;6.37;;
13388;SDS011;6764;53.250;10.410;2023-05-07T09:17:12;8.03;;;6.53;;
13388;SDS011;6764;53.250;10.410;2023-05-07T09:19:38;8.10;;;6.37;;
13388;SDS011;6764;53.250;10.410;2023-05-07T09:22:04;7.60;;;6.77;;
13388;SDS011;6764;53.250;10.410;2023-05-07T09:24:32;7.43;;;6.50;;
13388;SDS011;6764;53.250;10.410;2023-05-07T09:27:02;9.20;;;7.03;;
13388;SDS011;6764;53.250;10.410;2023-05-07T09:29:32;8.13;;;7.30;;
13388;SDS011;6764;53.250;10.410;2023-05-07T09:32:03;7.40;;;6.70;;
13388;SDS011;6764;53.250;10.410;2023-05-07T09:34:31;7.80;;;6.90;;
13388;SDS011;6764;53.250;10.410;2023-05-07T09:36:58;8.00;;;7.20;;
13388;SDS011;6764;53.250;10.410;2023-05-07T09:39:25;7.83;;;7.13;;
13388;SDS011;6764;53.250;10.410;2023-05-07T09:41:51;7.10;;;6.50;;
13388;SDS011;6764;53.250;10.410;2023-05-07T09:44:19;7.80;;;7.00;;
13388;SDS011;6764;53.250;10.410;2023-05-07T09:46:46;7.27;;;6.20;;
13388;SDS011;6764;53.250;10.410;2023-05-07T09:49:20;7.70;;;6.93;;
13388;SDS011;6764;53.250;10.410;2023-05-07T09:51:48;7.70;;;7.00;;
13388;SDS011;6764;53.250;10.410;2023-05-07T09:54:16;8.57;;;6.37;;
13388;SDS011;6764;53.250;10.410;2023-05-07T09:56:43;7.90;;;7.10;;
13388;SDS011;6764;53.250;10.410;2023-05-07T09:59:13;7.83;;;7.03;;
13388;SDS011;6764;53.250;10.410;2023-05-07T10:01:41;7.60;;;6.27;;
13388;SDS011;6764;53.250;10.410;2023-05-07T10:04:08;7.37;;;6.67;;
13388;SDS011;6764;53.250;10.410;2023-05-07T10:06:34;7.43;;;6.73;;
13388;SDS011;6764;53.250;10.410;2023-05-07T10:09:00;6.77;;;6.17;;
13388;SDS011;6764;53.250;10.410;2023-05-07T10:11:26;7.00;;;6.30;;
13388;SDS011;6764;53.250;10.410;2023-05-07T10:13:53;6.97;;;6.27;;
13388;SDS011;6764;53.250;10.410;2023-05-07T10:16:19;8.70;;;6.63;;
13388;SDS011;6764;53.250;10.410;2023-05-07T10:18:45;6.60;;;5.97;;
13388;SDS011;6764;53.250;10.410;2023-05-07T10:21:16;8.73;;;6.60;;
13388;SDS011;6764;53.250;10.410;2023-05-07T10:24:05;9.65;;;6.75;;
13388;SDS011;6764;53.250;10.410;2023-05-07T10:26:38;8.13;;;6.20;;
13388;SDS011;6764;53.250;10.410;2023-05-07T10:29:18;6.73;;;6.13;;
13388;SDS011;6764;53.250;10.410;2023-05-07T10:32:27;6.77;;;6.13;;
13388;SDS011;6764;53.250;10.410;2023-05-07T10:35:01;6.70;;;6.00;;
13388;SDS011;6764;53.250;10.410;2023-05-07T10:37:29;6.17;;;5.53;;
13388;SDS011;6764;53.250;10.410;2023-05-07T10:39:55;6.30;;;5.70;;
13388;SDS011;6764;53.250;10.410;2023-05-07T10:42:22;6.47;;;5.80;;
13388;SDS011;6764;53.250;10.410;2023-05-07T10:44:48;6.47;;;5.87;;
13388;SDS011;6764;53.250;10.410;2023-05-07T10:47:14;5.97;;;5.47;;
13388;SDS011;6764;53.250;10.410;2023-05-07T10:52:15;6.87;;;6.17;;
13388;SDS011;6764;53.250;10.410;2023-05-07T10:54:45;5.80;;;4.80;;
13388;SDS011;6764;53.250;10.410;2023-05-07T10:59:56;6.97;;;5.70;;
13388;SDS011;6764;53.250;10.410;2023-05-07T11:02:22;7.87;;;5.03;;
13388;SDS011;6764;53.250;10.410;2023-05-07T11:07:53;6.70;;;6.10;;
13388;SDS011;6764;53.250;10.410;2023-05-07T11:10:20;6.33;;;5.73;;
13388;SDS011;6764;53.250;10.410;2023-05-07T11:12:47;6.47;;;5.80;;
13388;SDS011;6764;53.250;10.410;2023-05-07T11:15:33;5.53;;;5.03;;
13388;SDS011;6764;53.250;10.410;2023-05-07T11:18:00;6.00;;;5.37;;
13388;SDS011;6764;53.250;10.410;2023-05-07T11:26:02;5.53;;;4.83;;
13388;SDS011;6764;53.250;10.410;2023-05-07T11:28:36;6.13;;;4.40;;
13388;SDS011;6764;53.250;10.410;2023-05-07T11:31:03;6.25;;;4.75;;
13388;SDS011;6764;53.250;10.410;2023-05-07T11:33:32;5.50;;;4.55;;
13388;SDS011;6764;53.250;10.410;2023-05-07T11:35:59;6.00;;;4.93;;
13388;SDS011;6764;53.250;10.410;2023-05-07T11:38:25;5.10;;;4.38;;
13388;SDS011;6764;53.250;10.410;2023-05-07T11:40:51;6.25;;;4.50;;
13388;SDS011;6764;53.250;10.410;2023-05-07T11:43:25;5.60;;;4.15;;
13388;SDS011;6764;53.250;10.410;2023-05-07T11:45:52;5.15;;;4.00;;
13388;SDS011;6764;53.250;10.410;2023-05-07T11:48:17;5.15;;;4.20;;
13388;SDS011;6764;53.250;10.410;2023-05-07T11:53:27;4.30;;;3.92;;
13388;SDS011;6764;53.250;10.410;2023-05-07T11:56:00;3.85;;;3.55;;
13388;SDS011;6764;53.250;10.410;2023-05-07T11:58:34;4.15;;;3.85;;
13388;SDS011;6764;53.250;10.410;2023-05-07T12:01:00;12.90;;;11.27;;
13388;SDS011;6764;53.250;10.410;2023-05-07T12:03:25;4.40;;;3.67;;
13388;SDS011;6764;53.250;10.410;2023-05-07T12:05:51;3.60;;;3.30;;
13388;SDS011;6764;53.250;10.410;2023-05-07T12:08:17;4.00;;;3.60;;
13388;SDS011;6764;53.250;10.410;2023-05-07T12:10:44;4.22;;;3.83;;
13388;SDS011;6764;53.250;10.410;2023-05-07T12:13:19;3.85;;;3.55;;
13388;SDS011;6764;53.250;10.410;2023-05-07T12:15:45;5.00;;;3.55;;
13388;SDS011;6764;53.250;10.410;2023-05-07T12:18:11;3.95;;;3.58;;
13388;SDS011;6764;53.250;10.410;2023-05-07T12:20:38;4.32;;;3.40;;
13388;SDS011;6764;53.250;10.410;2023-05-07T12:23:04;4.45;;;4.05;;
13388;SDS011;6764;53.250;10.410;2023-05-07T12:25:37;5.00;;;4.35;;
13388;SDS011;6764;53.250;10.410;2023-05-07T12:28:04;4.75;;;3.85;;
13388;SDS011;6764;53.250;10.410;2023-05-07T12:30:39;4.25;;;3.88;;
13388;SDS011;6764;53.250;10.410;2023-05-07T12:33:05;4.30;;;3.90;;
13388;SDS011;6764;53.250;10.410;2023-05-07T12:35:32;4.10;;;3.70;;
13388;SDS011;6764;53.250;10.410;2023-05-07T12:38:02;5.32;;;3.72;;
13388;SDS011;6764;53.250;10.410;2023-05-07T12:40:36;4.45;;;3.10;;
13388;SDS011;6764;53.250;10.410;2023-05-07T12:43:03;3.47;;;3.17;;
13388;SDS011;6764;53.250;10.410;2023-05-07T12:45:29;5.53;;;3.65;;
13388;SDS011;6764;53.250;10.410;2023-05-07T12:47:55;3.60;;;3.28;;
13388;SDS011;6764;53.250;10.410;2023-05-07T12:50:25;3.22;;;3.03;;
13388;SDS011;6764;53.250;10.410;2023-05-07T12:52:55;3.80;;;3.40;;
13388;SDS011;6764;53.250;10.410;2023-05-07T12:55:21;3.60;;;3.30;;
13388;SDS011;6764;53.250;10.410;2023-05-07T12:57:50;4.43;;;2.63;;
13388;SDS011;6764;53.250;10.410;2023-05-07T13:00:17;4.45;;;3.60;;
13388;SDS011;6764;53.250;10.410;2023-05-07T13:02:58;4.05;;;3.45;;
13388;SDS011;6764;53.250;10.410;2023-05-07T13:05:23;3.53;;;3.22;;
13388;SDS011;6764;53.250;10.410;2023-05-07T13:07:55;4.40;;;3.50;;
13388;SDS011;6764;53.250;10.410;2023-05-07T13:10:21;3.20;;;2.90;;
13388;SDS011;6764;53.250;10.410;2023-05-07T13:12:48;3.25;;;2.85;;
13388;SDS011;6764;53.250;10.410;2023-05-07T13:15:15;3.15;;;2.85;;
13388;SDS011;6764;53.250;10.410;2023-05-07T13:17:41;3.08;;;2.78;;
13388;SDS011;6764;53.250;10.410;2023-05-07T13:20:06;2.90;;;2.50;;
13388;SDS011;6764;53.250;10.410;2023-05-07T13:22:34;2.92;;;2.72;;
13388;SDS011;6764;53.250;10.410;2023-05-07T13:24:59;2.70;;;2.50;;
13388;SDS011;6764;53.250;10.410;2023-05-07T13:27:25;3.80;;;2.47;;
13388;SDS011;6764;53.250;10.410;2023-05-07T13:29:51;4.10;;;2.47;;
13388;SDS011;6764;53.250;10.410;2023-05-07T13:32:17;5.55;;;4.20;;
13388;SDS011;6764;53.250;10.410;2023-05-07T13:34:42;3.08;;;2.80;;
13388;SDS011;6764;53.250;10.410;2023-05-07T13:37:08;2.88;;;2.60;;
13388;SDS011;6764;53.250;10.410;2023-05-07T13:39:33;2.90;;;2.60;;
13388;SDS011;6764;53.250;10.410;2023-05-07T13:41:59;2.60;;;2.40;;
13388;SDS011;6764;53.250;10.410;2023-05-07T13:44:25;2.45;;;2.25;;
13388;SDS011;6764;53.250;10.410;2023-05-07T13:46:53;2.95;;;2.75;;
13388;SDS011;6764;53.250;10.410;2023-05-07T13:49:19;2.75;;;2.55;;
13388;SDS011;6764;53.250;10.410;2023-05-07T13:51:45;3.30;;;2.42;;
13388;SDS011;6764;53.250;10.410;2023-05-07T13:54:10;2.83;;;2.30;;
13388;SDS011;6764;53.250;10.410;2023-05-07T13:56:36;2.20;;;2.10;;
13388;SDS011;6764;53.250;10.410;2023-05-07T13:59:02;3.13;;;2.33;;
13388;SDS011;6764;53.250;10.410;2023-05-07T14:01:28;2.97;;;2.75;;
13388;SDS011;6764;53.250;10.410;2023-05-07T14:03:53;2.60;;;2.40;;
13388;SDS011;6764;53.250;10.410;2023-05-07T14:06:20;5.38;;;2.53;;
13388;SDS011;6764;53.250;10.410;2023-05-07T14:08:46;5.72;;;4.72;;
13388;SDS011;6764;53.250;10.410;2023-05-07T14:11:12;4.88;;;2.40;;
13388;SDS011;6764;53.250;10.410;2023-05-07T14:13:37;2.72;;;2.30;;
13388;SDS011;6764;53.250;10.410;2023-05-07T14:16:03;2.78;;;2.05;;
13388;SDS011;6764;53.250;10.410;2023-05-07T14:18:29;3.03;;;2.38;;
13388;SDS011;6764;53.250;10.410;2023-05-07T14:20:55;19.35;;;16.50;;
13388;SDS011;6764;53.250;10.410;2023-05-07T14:23:21;2.75;;;2.55;;
13388;SDS011;6764;53.250;10.410;2023-05-07T14:25:51;3.08;;;2.78;;
13388;SDS011;6764;53.250;10.410;2023-05-07T14:28:17;2.60;;;2.35;;
13388;SDS011;6764;53.250;10.410;2023-05-07T14:30:43;4.07;;;2.60;;
13388;SDS011;6764;53.250;10.410;2023-05-07T14:33:08;2.42;;;2.20;;
13388;SDS011;6764;53.250;10.410;2023-05-07T14:35:34;2.10;;;2.00;;
13388;SDS011;6764;53.250;10.410;2023-05-07T14:38:00;2.30;;;2.10;;
13388;SDS011;6764;53.250;10.410;2023-05-07T14:40:25;2.53;;;2.33;;
13388;SDS011;6764;53.250;10.410;2023-05-07T14:42:51;2.58;;;2.38;;
13388;SDS011;6764;53.250;10.410;2023-05-07T14:45:17;3.90;;;2.50;;
13388;SDS011;6764;53.250;10.410;2023-05-07T14:47:42;2.75;;;2.55;;
13388;SDS011;6764;53.250;10.410;2023-05-07T14:50:08;2.80;;;2.60;;
13388;SDS011;6764;53.250;10.410;2023-05-07T14:52:34;3.20;;;2.92;;
13388;SDS011;6764;53.250;10.410;2023-05-07T14:54:59;2.97;;;2.00;;
13388;SDS011;6764;53.250;10.410;2023-05-07T14:57:25;2.80;;;2.60;;
13388;SDS011;6764;53.250;10.410;2023-05-07T14:59:51;3.63;;;3.33;;
13388;SDS011;6764;53.250;10.410;2023-05-07T15:02:16;3.20;;;2.70;;